createdAt,value
2018-05-12T00:01:54.567Z,25.17
2018-05-12T00:04:25.528Z,24.80
2018-05-12T00:06:56.645Z,22.60
2018-05-12T00:09:27.534Z,23.42
2018-05-12T00:11:58.615Z,22.87
2018-05-12T00:14:29.596Z,23.90
2018-05-12T00:17:00.462Z,24.70
2018-05-12T00:19:31.333Z,24.50
2018-05-12T00:22:02.873Z,25.82
2018-05-12T00:24:33.569Z,24.27
2018-05-12T00:27:04.781Z,25.10
2018-05-12T00:29:35.541Z,25.65
2018-05-12T00:32:06.351Z,25.50
2018-05-12T00:34:37.022Z,26.42
2018-05-12T00:37:07.774Z,26.52
2018-05-12T00:39:38.503Z,26.77
2018-05-12T00:42:09.647Z,26.92
2018-05-12T00:44:40.487Z,26.40
2018-05-12T00:47:11.548Z,26.60
2018-05-12T00:49:42.146Z,26.58
2018-05-12T00:52:12.986Z,27.05
2018-05-12T00:54:43.650Z,26.45
2018-05-12T00:57:14.580Z,25.88
2018-05-12T00:59:45.090Z,26.58
2018-05-12T01:02:15.876Z,25.95
2018-05-12T01:04:46.554Z,25.67
2018-05-12T01:07:17.682Z,24.73
2018-05-12T01:09:48.578Z,26.35
2018-05-12T01:12:19.686Z,28.05
2018-05-12T01:14:50.151Z,25.48
2018-05-12T01:17:20.995Z,23.83
2018-05-12T01:19:51.685Z,25.75
2018-05-12T01:22:22.673Z,27.02
2018-05-12T01:24:53.565Z,26.23
2018-05-12T01:27:24.178Z,25.74
2018-05-12T01:29:54.088Z,26.77
2018-05-12T01:32:24.965Z,26.90
2018-05-12T01:34:55.574Z,25.98
2018-05-12T01:37:26.558Z,28.38
2018-05-12T01:39:57.543Z,27.80
2018-05-12T01:42:28.210Z,25.98
2018-05-12T01:44:58.914Z,27.42
2018-05-12T01:47:29.682Z,28.77
2018-05-12T01:50:00.647Z,27.95
2018-05-12T01:52:31.582Z,28.45
2018-05-12T01:55:02.230Z,27.42
2018-05-12T01:57:33.011Z,27.48
2018-05-12T02:00:03.725Z,27.33
2018-05-12T02:02:34.652Z,27.77
2018-05-12T02:05:05.655Z,27.23
2018-05-12T02:07:36.189Z,27.06
2018-05-12T02:10:06.174Z,28.27
2018-05-12T02:12:36.862Z,26.24
2018-05-12T02:15:07.550Z,27.55
2018-05-12T02:17:38.651Z,27.13
2018-05-12T02:20:09.547Z,27.85
2018-05-12T02:22:40.219Z,29.52
2018-05-12T02:25:10.862Z,30.86
2018-05-12T02:27:41.670Z,33.65
2018-05-12T02:30:12.576Z,33.08
2018-05-12T02:32:43.604Z,33.63
2018-05-12T02:35:13.834Z,33.60
2018-05-12T02:37:44.720Z,33.00
2018-05-12T02:40:15.563Z,32.88
2018-05-12T02:42:46.202Z,34.60
2018-05-12T02:45:16.914Z,36.97
2018-05-12T02:47:46.938Z,33.28
2018-05-12T02:50:17.674Z,32.05
2018-05-12T02:52:48.579Z,30.67
2018-05-12T02:55:19.546Z,30.65
2018-05-12T02:57:50.650Z,31.15
2018-05-12T03:00:21.555Z,30.45
2018-05-12T03:02:52.178Z,31.14
2018-05-12T03:05:22.994Z,30.17
2018-05-12T03:07:53.051Z,30.33
2018-05-12T03:10:23.766Z,29.37
2018-05-12T03:12:54.662Z,29.98
2018-05-12T03:15:25.633Z,30.42
2018-05-12T03:17:56.678Z,29.02
2018-05-12T03:20:27.537Z,28.42
2018-05-12T03:22:58.665Z,29.30
2018-05-12T03:25:29.514Z,27.87
2018-05-12T03:28:00.587Z,27.25
2018-05-12T03:30:31.489Z,28.83
2018-05-12T03:33:02.634Z,28.35
2018-05-12T03:35:33.598Z,29.83
2018-05-12T03:38:04.590Z,29.30
2018-05-12T03:40:35.571Z,28.60
2018-05-12T03:43:06.570Z,29.55
2018-05-12T03:45:37.594Z,29.70
2018-05-12T03:48:08.566Z,28.35
2018-05-12T03:50:39.533Z,28.83
2018-05-12T03:53:10.643Z,28.40
2018-05-12T03:55:41.102Z,26.16
2018-05-12T03:58:11.894Z,27.92
2018-05-12T04:00:42.654Z,26.95
2018-05-12T04:03:13.218Z,27.46
2018-05-12T04:05:55.124Z,27.72
2018-05-12T04:08:34.964Z,27.37
2018-05-12T04:11:15.219Z,27.37
2018-05-12T04:13:44.178Z,28.60
2018-05-12T04:16:13.354Z,27.70
2018-05-12T04:18:42.354Z,28.97
2018-05-12T04:21:11.290Z,29.17
2018-05-12T04:23:40.230Z,28.37
2018-05-12T04:26:09.293Z,29.10
2018-05-12T04:28:38.233Z,28.80
2018-05-12T04:31:07.178Z,28.87
2018-05-12T04:33:36.742Z,27.70
2018-05-12T04:36:05.694Z,28.33
2018-05-12T04:38:34.634Z,29.07
2018-05-12T04:41:03.670Z,31.27
2018-05-12T04:43:32.611Z,29.33
2018-05-12T04:46:01.571Z,29.80
2018-05-12T04:48:30.985Z,29.58
2018-05-12T04:50:59.950Z,28.53
2018-05-12T04:53:30.785Z,29.70
2018-05-12T04:56:01.658Z,29.05
2018-05-12T04:58:32.573Z,28.70
2018-05-12T05:01:03.546Z,28.92
2018-05-12T05:03:34.675Z,30.85
2018-05-12T05:06:05.610Z,31.17
2018-05-12T05:08:36.653Z,30.70
2018-05-12T05:11:07.562Z,28.98
2018-05-12T05:13:38.666Z,30.70
2018-05-12T05:16:09.538Z,32.28
2018-05-12T05:18:40.198Z,30.14
2018-05-12T05:21:11.049Z,29.35
2018-05-12T05:23:41.955Z,30.42
2018-05-12T05:26:12.644Z,30.77
2018-05-12T05:28:43.569Z,31.17
2018-05-12T05:31:14.278Z,30.08
2018-05-12T05:33:45.017Z,30.16
2018-05-12T05:36:15.760Z,32.35
2018-05-12T05:38:46.679Z,31.08
2018-05-12T05:41:17.605Z,30.40
2018-05-12T05:43:48.579Z,29.25
2018-05-12T05:46:19.487Z,29.73
2018-05-12T05:48:50.602Z,31.12
2018-05-12T05:51:21.606Z,32.83
2018-05-12T05:53:52.704Z,31.10
2018-05-12T05:56:23.110Z,31.64
2018-05-12T05:58:53.893Z,33.03
2018-05-12T06:01:25.826Z,32.83
2018-05-12T06:03:56.263Z,32.26
2018-05-12T06:06:26.762Z,33.00
2018-05-12T06:08:57.220Z,35.94
2018-05-12T06:11:27.975Z,31.24
2018-05-12T06:13:58.953Z,32.47
2018-05-12T06:16:29.712Z,32.80
2018-05-12T06:19:01.555Z,35.22
2018-05-12T06:21:31.163Z,34.20
2018-05-12T06:24:01.974Z,36.38
2018-05-12T06:26:32.741Z,35.42
2018-05-12T06:29:03.719Z,33.88
2018-05-12T06:31:36.984Z,33.96
2018-05-12T06:34:06.072Z,33.87
2018-05-12T06:36:36.830Z,32.72
2018-05-12T06:39:07.635Z,33.22
2018-05-12T06:41:39.019Z,32.63
2018-05-12T06:44:09.839Z,35.55
2018-05-12T06:46:40.640Z,34.90
2018-05-12T06:49:11.771Z,33.47
2018-05-12T06:51:42.562Z,35.80
2018-05-12T06:54:13.653Z,36.85
2018-05-12T06:56:44.610Z,34.47
2018-05-12T06:59:16.246Z,34.33
2018-05-12T07:01:48.720Z,33.42
2018-05-12T07:04:17.878Z,33.13
2018-05-12T07:06:47.927Z,34.92
2018-05-12T07:09:18.762Z,55.33
2018-05-12T07:11:53.330Z,35.00
2018-05-12T07:14:22.431Z,33.67
2018-05-12T07:16:51.399Z,34.60
2018-05-12T07:19:22.322Z,36.75
2018-05-12T07:21:52.106Z,36.22
2018-05-12T07:24:22.893Z,33.47
2018-05-12T07:26:54.163Z,35.03
2018-05-12T07:29:24.974Z,35.05
2018-05-12T07:31:55.733Z,36.95
2018-05-12T07:34:26.281Z,33.84
2018-05-12T07:36:58.079Z,34.05
2018-05-12T07:39:34.397Z,31.08
2018-05-12T07:42:08.277Z,34.63
2018-05-12T07:44:37.305Z,34.30
2018-05-12T07:47:06.302Z,34.10
2018-05-12T07:49:35.251Z,35.05
2018-05-12T07:52:05.809Z,32.50
2018-05-12T07:54:34.853Z,33.50
2018-05-12T07:57:03.879Z,33.25
2018-05-12T07:59:34.087Z,34.33
2018-05-12T08:02:04.821Z,31.73
2018-05-12T08:04:35.623Z,33.75
2018-05-12T08:07:06.646Z,33.20
2018-05-12T08:09:37.619Z,34.40
2018-05-12T08:12:09.182Z,32.62
2018-05-12T08:14:39.943Z,33.10
2018-05-12T08:17:10.648Z,32.95
2018-05-12T08:19:41.680Z,31.83
2018-05-12T08:22:12.545Z,31.37
2018-05-12T08:24:43.657Z,31.92
2018-05-12T08:27:14.554Z,31.20
2018-05-12T08:29:45.748Z,32.30
2018-05-12T08:32:16.591Z,29.02
2018-05-12T08:34:47.573Z,30.00
2018-05-12T08:37:18.608Z,28.85
2018-05-12T08:39:49.651Z,30.37
2018-05-12T08:42:20.602Z,29.85
2018-05-12T08:44:51.588Z,26.98
2018-05-12T08:47:22.599Z,27.25
2018-05-12T08:49:53.611Z,26.87
2018-05-12T08:52:24.543Z,26.73
2018-05-12T08:54:55.668Z,30.23
2018-05-12T08:57:26.508Z,31.12
2018-05-12T08:59:57.564Z,28.00
2018-05-12T09:02:28.551Z,28.00
2018-05-12T09:04:59.646Z,29.05
2018-05-12T09:07:30.156Z,26.12
2018-05-12T09:10:00.898Z,25.92
2018-05-12T09:12:31.570Z,26.30
2018-05-12T09:15:02.579Z,25.50
2018-05-12T09:17:33.670Z,25.02
2018-05-12T09:20:04.277Z,27.05
2018-05-12T09:22:35.827Z,23.74
2018-05-12T09:25:06.655Z,23.52
2018-05-12T09:27:37.192Z,20.38
2018-05-12T09:30:08.027Z,20.12
2018-05-12T09:32:38.869Z,18.08
2018-05-12T09:35:09.834Z,17.40
2018-05-12T09:37:40.535Z,18.17
2018-05-12T09:40:12.430Z,15.88
2018-05-12T09:42:43.214Z,15.50
2018-05-12T09:45:13.949Z,15.40
2018-05-12T09:47:44.714Z,14.52
2018-05-12T09:50:15.567Z,13.80
2018-05-12T09:52:46.611Z,14.73
2018-05-12T09:55:16.642Z,13.75
2018-05-12T09:57:47.274Z,14.38
2018-05-12T10:00:18.006Z,14.55
2018-05-12T10:02:49.120Z,14.65
2018-05-12T10:05:20.205Z,15.70
2018-05-12T10:07:51.107Z,15.48
2018-05-12T10:10:22.214Z,14.98
2018-05-12T10:12:53.268Z,14.85
2018-05-12T10:15:24.296Z,14.73
2018-05-12T10:18:01.234Z,15.32
2018-05-12T10:20:30.345Z,15.30
2018-05-12T10:22:59.895Z,16.43
2018-05-12T10:25:28.810Z,15.37
2018-05-12T10:27:59.794Z,16.35
2018-05-12T10:30:30.604Z,19.33
2018-05-12T10:33:01.611Z,18.52
2018-05-12T10:35:32.352Z,19.95
2018-05-12T10:38:04.007Z,19.62
2018-05-12T10:40:34.031Z,18.77
2018-05-12T10:43:04.868Z,17.87
2018-05-12T10:45:35.668Z,18.08
2018-05-12T10:48:06.823Z,18.40
2018-05-12T10:50:37.613Z,17.92
2018-05-12T10:53:08.747Z,18.45
2018-05-12T10:55:39.634Z,16.45
2018-05-12T10:58:10.769Z,17.35
2018-05-12T11:00:41.613Z,16.00
2018-05-12T11:03:12.704Z,16.75
2018-05-12T11:05:43.587Z,16.62
2018-05-12T11:08:14.274Z,16.62
2018-05-12T11:10:44.821Z,15.73
2018-05-12T11:13:15.719Z,16.08
2018-05-12T11:15:46.234Z,15.12
2018-05-12T11:18:16.998Z,16.28
2018-05-12T11:20:47.019Z,15.77
2018-05-12T11:23:17.880Z,15.80
2018-05-12T11:25:48.948Z,16.62
2018-05-12T11:28:19.767Z,14.07
2018-05-12T11:30:50.838Z,14.60
2018-05-12T11:33:22.582Z,14.52
2018-05-12T11:35:53.266Z,12.72
2018-05-12T11:38:27.529Z,12.56
2018-05-12T11:40:57.086Z,11.12
2018-05-12T11:43:26.055Z,11.50
2018-05-12T11:45:56.090Z,11.65
2018-05-12T11:48:26.948Z,13.05
2018-05-12T11:50:57.688Z,12.20
2018-05-12T11:53:28.659Z,10.63
2018-05-12T11:55:59.205Z,11.04
2018-05-12T11:58:30.030Z,12.90
2018-05-12T12:01:00.949Z,11.55
2018-05-12T12:03:31.819Z,10.98
2018-05-12T12:06:02.598Z,11.38
2018-05-12T12:08:33.155Z,11.36
2018-05-12T12:11:03.932Z,10.88
2018-05-12T12:13:34.724Z,10.45
2018-05-12T12:16:05.725Z,11.38
2018-05-12T12:18:36.654Z,12.20
2018-05-12T12:21:07.725Z,11.35
2018-05-12T12:23:38.755Z,11.38
2018-05-12T12:26:09.793Z,11.98
2018-05-12T12:28:40.568Z,12.43
2018-05-12T12:31:12.381Z,11.76
2018-05-12T12:33:43.151Z,12.18
2018-05-12T12:36:13.229Z,10.52
2018-05-12T12:38:44.019Z,10.42
2018-05-12T12:41:14.706Z,10.35
2018-05-12T12:43:45.579Z,11.45
2018-05-12T12:46:16.607Z,12.00
2018-05-12T12:48:47.615Z,11.82
2018-05-12T12:51:18.678Z,11.30
2018-05-12T12:53:49.575Z,12.37
2018-05-12T12:56:20.188Z,11.26
2018-05-12T12:58:50.947Z,11.10
2018-05-12T13:01:21.031Z,8.55
2018-05-12T13:03:51.941Z,9.38
2018-05-12T13:06:22.668Z,8.70
2018-05-12T13:08:53.595Z,10.02
2018-05-12T13:11:24.870Z,8.23
2018-05-12T13:13:55.956Z,8.82
2018-05-12T13:16:26.146Z,7.43
2018-05-12T13:18:56.961Z,8.55
2018-05-12T13:21:27.694Z,9.23
2018-05-12T13:23:58.609Z,7.87
2018-05-12T13:26:29.609Z,8.98
2018-05-12T13:29:00.617Z,7.57
2018-05-12T13:31:31.319Z,8.18
2018-05-12T13:34:02.114Z,7.18
2018-05-12T13:36:32.830Z,6.65
2018-05-12T13:39:03.446Z,7.22
2018-05-12T13:41:34.562Z,6.93
2018-05-12T13:44:05.541Z,7.03
2018-05-12T13:46:36.568Z,7.12
2018-05-12T13:49:07.618Z,6.75
2018-05-12T13:51:38.502Z,7.20
2018-05-12T13:54:09.630Z,6.97
2018-05-12T13:56:40.531Z,6.82
2018-05-12T13:59:11.673Z,6.87
2018-05-12T14:01:42.144Z,6.58
2018-05-12T14:04:12.965Z,6.47
2018-05-12T14:06:43.694Z,6.43
2018-05-12T14:09:14.580Z,5.65
2018-05-12T14:11:45.524Z,5.50
2018-05-12T14:14:16.651Z,5.47
2018-05-12T14:16:47.535Z,5.72
2018-05-12T14:19:18.627Z,6.05
2018-05-12T14:21:49.530Z,6.45
2018-05-12T14:24:20.646Z,7.45
2018-05-12T14:26:51.609Z,7.82
2018-05-12T14:29:22.727Z,7.78
2018-05-12T14:31:53.447Z,8.00
2018-05-12T14:34:24.153Z,8.06
2018-05-12T14:36:54.880Z,7.75
2018-05-12T14:39:25.684Z,8.00
2018-05-12T14:41:57.078Z,7.57
2018-05-12T14:44:27.863Z,7.05
2018-05-12T14:46:58.621Z,7.03
2018-05-12T14:49:29.702Z,10.30
2018-05-12T14:52:01.340Z,7.55
2018-05-12T14:54:31.585Z,7.20
2018-05-12T14:57:02.558Z,8.98
2018-05-12T14:59:33.623Z,10.18
2018-05-12T15:02:04.634Z,10.60
2018-05-12T15:04:35.677Z,11.95
2018-05-12T15:07:06.544Z,8.40
2018-05-12T15:09:37.542Z,7.15
2018-05-12T15:12:08.545Z,6.80
2018-05-12T15:14:39.554Z,6.40
2018-05-12T15:17:10.795Z,6.37
2018-05-12T15:19:41.654Z,7.10
2018-05-12T15:22:12.521Z,6.87
2018-05-12T15:24:43.611Z,6.62
2018-05-12T15:27:14.468Z,7.05
2018-05-12T15:29:45.244Z,6.24
2018-05-12T15:32:15.938Z,7.68
2018-05-12T15:34:46.799Z,7.70
2018-05-12T15:37:17.569Z,7.53
2018-05-12T15:39:48.519Z,7.97
2018-05-12T15:42:19.578Z,8.55
2018-05-12T15:44:50.642Z,8.65
2018-05-12T15:47:21.559Z,8.45
2018-05-12T15:49:52.593Z,7.97
2018-05-12T15:52:23.543Z,7.72
2018-05-12T15:54:54.634Z,8.57
2018-05-12T15:57:25.711Z,9.35
2018-05-12T15:59:56.598Z,9.77
2018-05-12T16:02:27.483Z,8.88
2018-05-12T16:04:58.687Z,8.10
2018-05-12T16:07:29.600Z,8.13
2018-05-12T16:10:00.291Z,8.42
2018-05-12T16:12:30.886Z,8.43
2018-05-12T16:15:01.716Z,7.95
2018-05-12T16:17:32.594Z,8.50
2018-05-12T16:20:03.645Z,8.38
2018-05-12T16:22:34.180Z,7.20
2018-05-12T16:25:04.998Z,8.46
2018-05-12T16:27:35.729Z,8.63
2018-05-12T16:30:06.950Z,9.05
2018-05-12T16:32:36.953Z,8.32
2018-05-12T16:35:07.847Z,8.50
2018-05-12T16:37:37.958Z,8.40
2018-05-12T16:40:08.773Z,8.00
2018-05-12T16:42:39.615Z,8.18
2018-05-12T16:45:10.285Z,9.30
2018-05-12T16:47:41.918Z,8.74
2018-05-12T16:50:12.104Z,9.90
2018-05-12T16:52:42.867Z,8.82
2018-05-12T16:55:13.713Z,10.80
2018-05-12T16:57:44.621Z,10.50
2018-05-12T17:00:15.749Z,9.65
2018-05-12T17:02:46.535Z,9.95
2018-05-12T17:05:17.655Z,10.05
2018-05-12T17:07:48.666Z,9.35
2018-05-12T17:10:19.627Z,8.80
2018-05-12T17:12:50.607Z,8.02
2018-05-12T17:15:21.707Z,7.93
2018-05-12T17:17:52.614Z,7.72
2018-05-12T17:20:23.594Z,8.57
2018-05-12T17:22:54.544Z,10.35
2018-05-12T17:25:25.662Z,10.27
2018-05-12T17:27:56.668Z,9.65
2018-05-12T17:30:27.712Z,8.35
2018-05-12T17:32:58.547Z,7.68
2018-05-12T17:35:29.682Z,7.68
2018-05-12T17:38:00.558Z,7.10
2018-05-12T17:40:31.646Z,6.95
2018-05-12T17:43:02.631Z,7.55
2018-05-12T17:45:33.731Z,7.40
2018-05-12T17:48:04.405Z,6.60
2018-05-12T17:50:35.583Z,5.55
2018-05-12T17:53:06.647Z,6.07
2018-05-12T17:55:37.633Z,5.70
2018-05-12T17:58:07.951Z,6.35
2018-05-12T18:00:38.805Z,6.90
2018-05-12T18:03:10.613Z,7.40
2018-05-12T18:05:41.267Z,7.16
2018-05-12T18:08:11.958Z,7.26
2018-05-12T18:10:42.751Z,6.87
2018-05-12T18:13:13.581Z,6.72
2018-05-12T18:15:44.592Z,7.72
2018-05-12T18:18:15.582Z,8.43
2018-05-12T18:20:46.629Z,8.18
2018-05-12T18:23:17.637Z,8.82
2018-05-12T18:25:48.861Z,9.20
2018-05-12T18:28:19.698Z,8.98
2018-05-12T18:30:50.562Z,7.80
2018-05-12T18:33:21.796Z,8.45
2018-05-12T18:35:52.764Z,7.75
2018-05-12T18:38:23.372Z,7.94
2018-05-12T18:40:54.105Z,7.60
2018-05-12T18:43:24.919Z,8.10
2018-05-12T18:45:55.667Z,7.30
2018-05-12T18:48:26.703Z,7.15
2018-05-12T18:50:57.521Z,7.32
2018-05-12T18:53:28.581Z,8.07
2018-05-12T18:55:59.537Z,6.97
2018-05-12T18:58:31.383Z,7.30
2018-05-12T19:01:02.159Z,7.47
2018-05-12T19:03:33.058Z,7.10
2018-05-12T19:06:03.797Z,7.37
2018-05-12T19:08:34.658Z,8.38
2018-05-12T19:11:05.686Z,8.05
2018-05-12T19:13:36.794Z,8.57
2018-05-12T19:16:07.786Z,8.93
2018-05-12T19:18:38.736Z,8.90
2018-05-12T19:21:09.227Z,7.64
2018-05-12T19:23:43.050Z,9.25
2018-05-12T19:26:13.855Z,8.75
2018-05-12T19:28:42.908Z,9.15
2018-05-12T19:31:16.818Z,8.80
2018-05-12T19:33:45.845Z,10.53
2018-05-12T19:36:15.069Z,10.90
2018-05-12T19:38:55.248Z,11.23
2018-05-12T19:41:24.467Z,10.10
2018-05-12T19:43:53.584Z,10.90
2018-05-12T19:46:22.786Z,9.27
2018-05-12T19:48:51.824Z,9.73
2018-05-12T19:51:20.854Z,9.53
2018-05-12T19:53:51.639Z,9.73
2018-05-12T19:56:22.228Z,9.38
2018-05-12T19:58:53.096Z,9.46
2018-05-12T20:01:23.992Z,9.18
2018-05-12T20:03:54.835Z,10.82
2018-05-12T20:06:25.060Z,9.65
2018-05-12T20:08:55.836Z,10.38
2018-05-12T20:11:26.643Z,13.77
2018-05-12T20:13:57.147Z,10.96
2018-05-12T20:16:27.987Z,14.86
2018-05-12T20:18:58.015Z,13.32
2018-05-12T20:21:28.874Z,13.93
2018-05-12T20:23:59.639Z,13.98
2018-05-12T20:26:30.881Z,12.13
2018-05-12T20:29:01.806Z,13.07
2018-05-12T20:31:33.512Z,14.48
2018-05-12T20:34:04.271Z,19.66
2018-05-12T20:36:35.053Z,20.90
2018-05-12T20:39:04.657Z,17.62
2018-05-12T20:41:35.954Z,16.48
2018-05-12T20:44:08.316Z,14.15
2018-05-12T20:46:39.212Z,13.32
2018-05-12T20:49:09.952Z,12.73
2018-05-12T20:51:40.232Z,12.27
2018-05-12T20:54:11.238Z,12.32
2018-05-12T20:56:42.339Z,12.05
2018-05-12T20:59:13.022Z,12.04
2018-05-12T21:01:45.347Z,12.25
2018-05-12T21:04:15.434Z,11.95
2018-05-12T21:06:46.836Z,11.86
2018-05-12T21:09:16.877Z,11.90
2018-05-12T21:11:47.875Z,11.55
2018-05-12T21:14:18.732Z,11.90
2018-05-12T21:16:49.815Z,11.65
2018-05-12T21:19:20.555Z,11.73
2018-05-12T21:21:51.625Z,11.05
2018-05-12T21:24:23.798Z,11.26
2018-05-12T21:26:59.467Z,11.68
2018-05-12T21:29:29.021Z,11.32
2018-05-12T21:31:58.028Z,12.03
2018-05-12T21:34:27.062Z,11.15
2018-05-12T21:36:57.026Z,10.80
2018-05-12T21:39:28.359Z,11.23
2018-05-12T21:41:59.002Z,10.80
2018-05-12T21:44:29.200Z,10.50
2018-05-12T21:46:59.897Z,11.28
2018-05-12T21:49:30.795Z,10.52
2018-05-12T21:52:01.554Z,11.77
2018-05-12T21:54:33.129Z,10.15
2018-05-12T21:57:04.007Z,11.63
2018-05-12T21:59:38.609Z,11.18
2018-05-12T22:02:08.001Z,10.77
2018-05-12T22:04:37.579Z,10.40
2018-05-12T22:07:08.308Z,10.88
2018-05-12T22:13:09.371Z,10.13
2018-05-12T22:15:38.425Z,10.10
2018-05-12T22:18:07.406Z,9.57
2018-05-12T22:20:36.391Z,9.83
2018-05-12T22:23:05.476Z,9.83
2018-05-12T22:25:34.460Z,9.13
2018-05-12T22:28:03.425Z,8.57
2018-05-12T22:30:32.505Z,9.10
2018-05-12T22:33:01.720Z,8.93
2018-05-12T22:35:31.008Z,9.65
2018-05-12T22:38:00.251Z,8.97
2018-05-12T22:40:35.978Z,10.10
2018-05-12T22:43:05.251Z,8.33
2018-05-12T22:45:34.394Z,8.33
2018-05-12T22:48:03.322Z,7.90
2018-05-12T22:50:33.056Z,7.50
2018-05-12T22:53:02.098Z,7.40
2018-05-12T22:55:31.183Z,7.37
2018-05-12T22:58:00.591Z,7.17
2018-05-12T23:00:32.585Z,7.30
2018-05-12T23:03:01.634Z,6.27
2018-05-12T23:05:30.588Z,6.87
2018-05-12T23:07:59.568Z,6.90
2018-05-12T23:10:28.582Z,6.20
2018-05-12T23:12:57.842Z,5.47
2018-05-12T23:15:27.209Z,6.60
2018-05-12T23:17:56.222Z,6.27
2018-05-12T23:20:25.241Z,6.33
2018-05-12T23:22:54.215Z,5.77
2018-05-12T23:25:23.307Z,5.47
2018-05-12T23:27:52.383Z,5.83
2018-05-12T23:30:21.339Z,5.63
2018-05-12T23:32:50.771Z,5.47
2018-05-12T23:35:19.750Z,5.37
2018-05-12T23:37:48.711Z,5.07
2018-05-12T23:40:17.751Z,4.47
2018-05-12T23:42:46.763Z,4.43
2018-05-12T23:45:15.727Z,4.60
2018-05-12T23:47:45.080Z,4.53
2018-05-12T23:50:14.124Z,4.77
2018-05-12T23:52:44.823Z,4.43
2018-05-12T23:55:15.765Z,4.50
2018-05-12T23:57:46.494Z,4.70
